Time;durP1;ratioP1;P1;durP2;ratioP2;P2;SDS_P1;SDS_P2;PMS_P1;PMS_P2;Temp;Humidity;BMP_temperature;BMP_pressure;BME280_temperature;BME280_humidity;BME280_pressure;Samples;Min_cycle;Max_cycle;Signal;HPM_P1;HPM_P2
2022/04/11 00:01:35;;;;;;;9.70;2.75;;;;;;;19.55;35.22;100922.97;5018948;28;20037;-79
2022/04/11 00:04:00;;;;;;;18.50;4.63;;;;;;;19.55;34.89;100931.31;5018930;28;20389;-79
2022/04/11 00:06:26;;;;;;;7.57;2.80;;;;;;;19.54;34.62;100938.00;5019020;28;20025;-79
2022/04/11 00:08:52;;;;;;;11.75;3.45;;;;;;;19.35;34.67;100938.88;5018925;28;20026;-79
2022/04/11 00:11:17;;;;;;;7.55;2.20;;;;;;;19.50;34.24;100939.94;5018941;28;20128;-80
2022/04/11 00:13:43;;;;;;;8.60;2.85;;;;;;;19.54;34.18;100932.47;5018890;28;20022;-78
2022/04/11 00:16:08;;;;;;;11.75;3.30;;;;;;;19.54;33.98;100936.03;5018893;28;20034;-78
2022/04/11 00:18:34;;;;;;;9.98;2.58;;;;;;;19.56;33.78;100938.44;5018754;28;20022;-78
2022/04/11 00:21:00;;;;;;;11.55;3.67;;;;;;;19.56;33.80;100943.97;5018812;28;20120;-79
2022/04/11 00:23:26;;;;;;;7.35;2.55;;;;;;;19.61;33.96;100940.94;5018788;28;20101;-80
2022/04/11 00:25:52;;;;;;;5.60;2.00;;;;;;;19.48;33.66;100936.72;5018819;28;20048;-79
2022/04/11 00:28:17;;;;;;;7.25;2.55;;;;;;;19.50;33.64;100943.50;5001043;28;20459;-79
2022/04/11 00:30:43;;;;;;;11.25;4.00;;;;;;;19.35;33.38;100942.44;5018741;28;20484;-79
2022/04/11 00:33:08;;;;;;;7.57;1.95;;;;;;;19.47;33.22;100938.69;5001169;28;20076;-79
2022/04/11 00:35:34;;;;;;;9.32;2.60;;;;;;;19.55;33.08;100937.63;5001184;28;20022;-79
2022/04/11 00:38:00;;;;;;;7.25;2.72;;;;;;;19.46;33.23;100925.22;5018768;28;20434;-79
2022/04/11 00:40:26;;;;;;;7.03;1.92;;;;;;;19.41;33.11;100927.09;5018732;28;20026;-79
2022/04/11 00:42:51;;;;;;;13.85;2.95;;;;;;;19.51;32.92;100925.72;5008976;28;20404;-79
2022/04/11 00:45:17;;;;;;;9.63;2.72;;;;;;;19.22;33.37;100924.38;5017338;28;20026;-79
2022/04/11 00:47:45;;;;;;;7.60;2.10;;;;;;;19.21;33.17;100911.72;5018564;28;20365;-80
2022/04/11 00:50:11;;;;;;;5.22;1.85;;;;;;;19.24;33.19;100910.97;5018743;28;20107;-79
2022/04/11 00:52:50;;;;;;;5.93;2.15;;;;;;;19.25;32.97;100914.53;5017220;28;20030;-79
2022/04/11 00:55:21;;;;;;;8.18;2.45;;;;;;;19.09;33.36;100909.88;5018605;28;20072;-80
2022/04/11 00:57:48;;;;;;;7.47;2.42;;;;;;;19.23;32.82;100905.78;5015012;28;20033;-79
2022/04/11 01:00:14;;;;;;;9.88;2.55;;;;;;;19.15;32.87;100896.56;5015357;28;20029;-79
2022/04/11 01:02:40;;;;;;;10.63;2.65;;;;;;;19.26;32.78;100894.75;5015268;28;20065;-80
2022/04/11 01:05:08;;;;;;;13.63;3.70;;;;;;;19.32;32.46;100895.25;5014104;28;20118;-79
2022/04/11 01:07:38;;;;;;;7.78;2.40;;;;;;;19.10;32.69;100889.31;5015204;28;20029;-80
2022/04/11 01:10:04;;;;;;;6.38;2.50;;;;;;;19.64;31.78;100873.66;5014037;28;20116;-80
2022/04/11 01:12:30;;;;;;;10.20;2.83;;;;;;;19.75;31.78;100880.19;5014518;28;20030;-79
2022/04/11 01:14:56;;;;;;;9.40;3.10;;;;;;;19.71;31.87;100887.66;5013784;28;20428;-80
2022/04/11 01:17:34;;;;;;;7.60;2.25;;;;;;;19.82;31.64;100876.75;5013806;28;20549;-80
2022/04/11 01:20:08;;;;;;;6.50;2.42;;;;;;;19.70;31.81;100866.66;5013812;28;20172;-80
2022/04/11 01:22:34;;;;;;;6.88;2.80;;;;;;;19.81;31.75;100861.28;5014882;28;20116;-79
2022/04/11 01:25:01;;;;;;;7.65;2.72;;;;;;;19.85;31.79;100851.84;5015019;28;20161;-79
2022/04/11 01:27:27;;;;;;;13.07;3.08;;;;;;;19.92;31.63;100851.94;5013669;28;20457;-80
2022/04/11 01:29:53;;;;;;;8.60;2.45;;;;;;;19.89;31.86;100858.25;5014857;28;20036;-79
2022/04/11 01:32:19;;;;;;;6.90;2.30;;;;;;;19.49;32.66;100855.19;5014857;28;20485;-80
2022/04/11 01:34:44;;;;;;;8.63;2.33;;;;;;;19.48;33.06;100850.81;5014745;28;20026;-80
2022/04/11 01:37:10;;;;;;;10.13;2.80;;;;;;;19.49;33.10;100844.09;5014628;28;20040;-80
2022/04/11 01:39:37;;;;;;;13.02;4.13;;;;;;;19.48;33.07;100834.19;5014743;28;20049;-80
2022/04/11 01:42:03;;;;;;;7.13;3.17;;;;;;;19.56;33.44;100827.59;5013087;28;20509;-79
2022/04/11 01:44:32;;;;;;;18.40;3.03;;;;;;;19.44;33.71;100825.03;5014517;28;20069;-79
2022/04/11 01:46:57;;;;;;;5.90;2.78;;;;;;;19.12;34.63;100828.84;5014571;28;20511;-79
2022/04/11 01:49:23;;;;;;;16.20;3.25;;;;;;;19.28;34.33;100820.41;5014533;28;20026;-79
2022/04/11 01:51:49;;;;;;;9.63;2.47;;;;;;;19.26;34.46;100808.09;5014370;28;20435;-79
2022/04/11 01:54:15;;;;;;;15.98;3.50;;;;;;;19.41;34.33;100821.00;5014419;28;20104;-78
2022/04/11 01:56:41;;;;;;;15.18;4.22;;;;;;;19.25;34.77;100804.53;5014386;28;20084;-78
2022/04/11 01:59:06;;;;;;;12.52;3.17;;;;;;;19.27;34.84;100810.50;5014306;28;20117;-80
2022/04/11 02:01:32;;;;;;;11.60;3.03;;;;;;;19.30;34.70;100807.00;5014239;28;20084;-79
2022/04/11 02:03:58;;;;;;;9.60;2.20;;;;;;;19.41;34.58;100818.25;5014217;28;20041;-79
2022/04/11 02:06:23;;;;;;;11.02;2.92;;;;;;;19.40;34.79;100809.13;5014218;28;20370;-79
2022/04/11 02:08:49;;;;;;;8.68;3.20;;;;;;;19.40;34.70;100811.09;5013943;28;20037;-79
2022/04/11 02:11:15;;;;;;;10.38;2.63;;;;;;;19.23;34.72;100798.56;5014145;28;20374;-78
2022/04/11 02:13:41;;;;;;;6.85;2.58;;;;;;;19.39;34.47;100801.19;5014105;28;20466;-79
2022/04/11 02:16:07;;;;;;;9.55;2.85;;;;;;;19.32;34.47;100803.84;5013928;28;20037;-79
2022/04/11 02:18:32;;;;;;;8.52;2.85;;;;;;;19.31;34.45;100797.50;5013925;28;20029;-80
2022/04/11 02:20:58;;;;;;;7.93;2.28;;;;;;;19.26;34.26;100792.25;5013926;28;20096;-79
2022/04/11 02:23:24;;;;;;;7.63;2.40;;;;;;;19.33;34.13;100800.69;5013843;28;20516;-79
2022/04/11 02:25:49;;;;;;;14.15;3.22;;;;;;;19.37;34.21;100796.03;5013860;28;20037;-79
2022/04/11 02:28:15;;;;;;;11.13;2.97;;;;;;;19.31;34.17;100802.25;5012525;28;20037;-79
2022/04/11 02:30:40;;;;;;;9.25;2.60;;;;;;;19.64;33.57;100798.84;5012492;28;20026;-79
2022/04/11 02:33:06;;;;;;;21.77;4.00;;;;;;;19.67;33.47;100798.91;5013695;28;20029;-79
2022/04/11 02:35:31;;;;;;;10.93;2.70;;;;;;;19.77;33.21;100791.91;5012382;28;20030;-79
2022/04/11 02:37:57;;;;;;;7.95;2.60;;;;;;;19.70;33.40;100796.53;5013667;28;20117;-79
2022/04/11 02:40:23;;;;;;;8.30;4.15;;;;;;;19.85;33.02;100790.84;5013904;28;20121;-79
2022/04/11 02:42:48;;;;;;;10.45;2.75;;;;;;;19.71;33.39;100789.81;5013159;28;20050;-78
2022/04/11 02:45:15;;;;;;;11.25;3.35;;;;;;;19.23;34.12;100779.16;5013509;28;20108;-79
2022/04/11 02:47:41;;;;;;;12.13;2.70;;;;;;;19.22;34.23;100774.00;5013464;28;20049;-79
2022/04/11 02:50:08;;;;;;;13.07;4.03;;;;;;;19.11;34.56;100762.72;4995461;28;20030;-79
2022/04/11 02:52:33;;;;;;;14.57;2.92;;;;;;;19.06;34.74;100752.00;4995209;28;20535;-79
2022/04/11 02:55:00;;;;;;;8.02;2.70;;;;;;;19.20;34.55;100743.13;4995669;28;20034;-80
2022/04/11 02:57:26;;;;;;;10.18;2.65;;;;;;;19.10;34.51;100736.22;5013507;28;20087;-78
2022/04/11 02:59:53;;;;;;;10.88;3.40;;;;;;;18.76;35.14;100724.97;5013235;28;20036;-79
2022/04/11 03:02:19;;;;;;;10.20;2.92;;;;;;;18.79;35.12;100724.22;5013033;28;20038;-78
